Time;durP1;ratioP1;P1;durP2;ratioP2;P2;SDS_P1;SDS_P2;PMS_P1;PMS_P2;Temp;Humidity;BMP_temperature;BMP_pressure;BME280_temperature;BME280_humidity;BME280_pressure;Samples;Min_cycle;Max_cycle;Signal;HPM_P1;HPM_P2
2022/09/14 00:00:50;;;;;;;26.40;16.67;;;;;;;19.29;100.00;99715.41;8340779;28;20055;-51
2022/09/14 00:04:53;;;;;;;27.38;14.80;;;;;;;19.34;100.00;99727.41;8344522;28;20044;-48
2022/09/14 00:08:55;;;;;;;31.65;17.08;;;;;;;19.37;100.00;99732.47;8344819;28;20477;-48
2022/09/14 00:12:56;;;;;;;28.73;16.75;;;;;;;19.48;100.00;99730.94;8337823;28;20074;-49
2022/09/14 00:16:56;;;;;;;32.38;19.05;;;;;;;19.54;100.00;99729.25;8327812;28;20148;-50
2022/09/14 00:21:00;;;;;;;30.60;17.85;;;;;;;19.46;100.00;99717.44;8327904;28;20471;-48
2022/09/14 00:25:01;;;;;;;34.95;19.20;;;;;;;19.42;100.00;99710.72;8327706;28;20386;-48
2022/09/14 00:29:03;;;;;;;29.60;16.50;;;;;;;19.41;100.00;99700.84;8327961;28;20038;-50
2022/09/14 00:33:04;;;;;;;28.35;16.73;;;;;;;19.52;100.00;99700.13;8327318;28;20506;-48
2022/09/14 00:37:04;;;;;;;25.65;16.30;;;;;;;19.43;100.00;99695.94;8327953;28;20470;-49
2022/09/14 00:41:10;;;;;;;27.55;15.55;;;;;;;19.48;100.00;99699.97;8327793;28;20030;-48
2022/09/14 00:45:17;;;;;;;29.67;15.43;;;;;;;19.52;100.00;99692.97;8329405;28;20395;-50
2022/09/14 00:49:26;;;;;;;32.28;18.42;;;;;;;19.45;100.00;99685.63;8326510;28;20033;-49
2022/09/14 00:53:26;;;;;;;27.48;16.70;;;;;;;19.48;100.00;99681.59;8325346;28;20029;-48
2022/09/14 00:57:33;;;;;;;27.92;15.25;;;;;;;19.37;100.00;99683.13;8326736;28;20033;-51
2022/09/14 01:01:34;;;;;;;28.00;15.15;;;;;;;19.39;100.00;99683.75;8325333;28;20045;-49
2022/09/14 01:06:02;;;;;;;24.88;15.98;;;;;;;19.25;100.00;99676.59;8324261;28;20038;-48
2022/09/14 01:10:28;;;;;;;28.65;15.30;;;;;;;19.28;100.00;99670.72;8343599;28;20112;-50
2022/09/14 01:14:44;;;;;;;31.33;16.95;;;;;;;19.27;100.00;99671.78;8341051;28;20116;-48
2022/09/14 01:18:54;;;;;;;31.05;16.85;;;;;;;19.45;100.00;99674.66;8358937;28;20036;-49
2022/09/14 01:23:19;;;;;;;34.10;17.75;;;;;;;19.51;100.00;99678.41;8344971;28;20466;-49
2022/09/14 01:27:40;;;;;;;39.67;19.25;;;;;;;19.46;100.00;99676.31;8325262;28;20033;-50
2022/09/14 01:31:55;;;;;;;32.05;17.55;;;;;;;19.33;100.00;99672.78;8338081;28;20040;-49
2022/09/14 01:35:58;;;;;;;39.22;18.55;;;;;;;19.40;100.00;99679.94;8340081;28;20047;-50
2022/09/14 01:40:06;;;;;;;38.97;19.15;;;;;;;19.49;100.00;99689.59;8325856;28;20049;-49
2022/09/14 01:44:15;;;;;;;39.80;19.33;;;;;;;19.41;100.00;99684.38;8352770;28;20041;-50
2022/09/14 01:48:22;;;;;;;45.67;19.95;;;;;;;19.29;100.00;99666.94;8342514;28;20044;-49
2022/09/14 01:52:28;;;;;;;43.88;20.10;;;;;;;19.24;100.00;99668.59;8357897;28;20132;-50
2022/09/14 01:56:35;;;;;;;46.00;21.83;;;;;;;19.36;100.00;99673.22;8356297;28;20021;-49
2022/09/14 02:00:41;;;;;;;44.00;21.73;;;;;;;19.31;100.00;99659.31;8357852;28;20171;-51
2022/09/14 02:05:05;;;;;;;42.97;20.60;;;;;;;19.24;100.00;99663.09;8351562;28;20166;-49
2022/09/14 02:09:09;;;;;;;42.58;19.52;;;;;;;19.17;100.00;99649.44;8358341;28;20490;-49
2022/09/14 02:13:09;;;;;;;45.55;20.95;;;;;;;19.24;100.00;99641.19;8357724;28;20033;-53
2022/09/14 02:17:11;;;;;;;37.25;16.88;;;;;;;19.19;100.00;99651.97;8328583;28;20141;-49
2022/09/14 02:21:17;;;;;;;40.95;18.83;;;;;;;19.32;100.00;99644.56;8316987;28;20124;-51
2022/09/14 02:25:19;;;;;;;41.30;20.65;;;;;;;19.38;100.00;99638.22;8324352;28;20033;-51
2022/09/14 02:29:19;;;;;;;41.88;20.02;;;;;;;19.41;100.00;99637.78;8324776;28;20125;-52
2022/09/14 02:33:30;;;;;;;42.50;19.52;;;;;;;19.29;100.00;99620.34;8324763;28;20026;-55
2022/09/14 02:38:09;;;;;;;43.13;20.40;;;;;;;19.23;100.00;99618.44;8324686;28;20030;-54
2022/09/14 02:42:36;;;;;;;36.58;17.60;;;;;;;19.18;100.00;99603.69;8352692;28;20040;-51
2022/09/14 02:46:46;;;;;;;36.13;16.08;;;;;;;19.15;100.00;99590.41;8357690;28;20402;-54
2022/09/14 02:50:58;;;;;;;34.10;17.10;;;;;;;19.12;100.00;99597.19;8353552;28;20136;-52
2022/09/14 02:55:06;;;;;;;37.85;16.75;;;;;;;19.11;100.00;99591.91;8356720;28;20029;-55
2022/09/14 02:59:06;;;;;;;30.17;15.85;;;;;;;19.11;100.00;99586.44;8355306;28;20112;-55
2022/09/14 03:03:09;;;;;;;35.97;15.50;;;;;;;19.14;100.00;99584.13;8355649;28;20079;-54
2022/09/14 03:07:10;;;;;;;37.67;17.38;;;;;;;19.27;100.00;99580.47;8356579;28;20418;-54
2022/09/14 03:11:10;;;;;;;38.00;17.92;;;;;;;19.27;100.00;99575.84;8357275;28;20047;-54
2022/09/14 03:15:11;;;;;;;31.23;14.77;;;;;;;19.18;100.00;99574.38;8355762;28;20036;-53
2022/09/14 03:19:11;;;;;;;31.77;14.80;;;;;;;19.14;100.00;99570.41;8355837;28;20040;-54
2022/09/14 03:23:12;;;;;;;31.65;14.05;;;;;;;19.11;100.00;99565.38;8341201;28;20033;-52
2022/09/14 03:27:13;;;;;;;33.25;15.90;;;;;;;19.07;100.00;99566.88;8357975;28;20083;-52
2022/09/14 03:31:13;;;;;;;33.55;15.07;;;;;;;19.08;100.00;99564.94;8362848;28;20063;-52
2022/09/14 03:35:15;;;;;;;35.22;15.60;;;;;;;19.16;100.00;99573.75;8362138;28;20029;-54
2022/09/14 03:39:15;;;;;;;38.10;16.70;;;;;;;19.19;100.00;99559.63;8361302;28;20496;-54
2022/09/14 03:43:16;;;;;;;38.85;17.70;;;;;;;19.27;100.00;99559.41;8361068;28;20485;-55
2022/09/14 03:47:16;;;;;;;37.90;16.70;;;;;;;19.28;100.00;99555.59;8361987;28;20175;-51
2022/09/14 03:51:17;;;;;;;41.42;17.40;;;;;;;19.29;100.00;99557.28;8362443;28;20498;-53
2022/09/14 03:55:18;;;;;;;43.70;19.70;;;;;;;19.25;100.00;99555.19;8361303;28;20060;-54
2022/09/14 03:59:19;;;;;;;49.38;24.77;;;;;;;19.15;100.00;99550.16;8360232;28;20033;-54
2022/09/14 04:03:19;;;;;;;57.72;25.55;;;;;;;19.13;100.00;99551.44;8356163;28;20045;-54
2022/09/14 04:07:20;;;;;;;46.83;24.85;;;;;;;19.01;100.00;99559.53;8359006;28;20033;-51
2022/09/14 04:11:23;;;;;;;50.03;24.52;;;;;;;18.92;100.00;99544.38;8349288;28;20457;-51
2022/09/14 04:15:23;;;;;;;44.75;24.52;;;;;;;18.83;100.00;99544.84;8347786;28;20399;-54
2022/09/14 04:19:24;;;;;;;53.03;24.98;;;;;;;18.77;100.00;99541.09;8349475;28;20068;-51
2022/09/14 04:23:25;;;;;;;46.55;24.70;;;;;;;18.67;100.00;99548.88;8354268;28;20314;-51
2022/09/14 04:27:25;;;;;;;48.17;25.52;;;;;;;18.62;100.00;99545.13;8353856;28;20044;-53
2022/09/14 04:31:26;;;;;;;46.70;24.35;;;;;;;18.67;100.00;99546.16;8355850;28;20044;-53
2022/09/14 04:35:26;;;;;;;47.13;24.40;;;;;;;18.60;100.00;99545.34;8353412;28;20086;-53
2022/09/14 04:39:27;;;;;;;47.28;24.63;;;;;;;18.64;100.00;99529.34;8352180;28;20120;-50
2022/09/14 04:43:27;;;;;;;41.92;22.60;;;;;;;18.53;100.00;99536.31;8352128;28;20124;-53
2022/09/14 04:47:28;;;;;;;44.55;22.25;;;;;;;18.48;100.00;99533.38;8352001;28;20083;-52
2022/09/14 04:51:31;;;;;;;41.83;22.02;;;;;;;18.51;100.00;99530.22;8355539;28;20086;-54
2022/09/14 04:55:31;;;;;;;43.67;22.33;;;;;;;18.49;100.00;99531.50;8353563;28;20047;-54
2022/09/14 04:59:33;;;;;;;44.47;23.95;;;;;;;18.42;100.00;99517.00;8352614;28;20125;-52
2022/09/14 05:03:35;;;;;;;47.67;22.45;;;;;;;18.50;100.00;99528.53;8350433;28;20049;-54
2022/09/14 05:07:35;;;;;;;48.17;23.42;;;;;;;18.47;100.00;99523.50;8354221;28;20037;-50
2022/09/14 05:11:36;;;;;;;49.03;24.17;;;;;;;18.44;100.00;99523.06;8352681;28;20094;-51
2022/09/14 05:15:36;;;;;;;46.22;23.17;;;;;;;18.37;100.00;99517.63;8353567;28;20048;-54
2022/09/14 05:19:37;;;;;;;44.28;22.45;;;;;;;18.37;100.00;99512.16;8349864;28;20041;-52
2022/09/14 05:23:38;;;;;;;45.90;22.65;;;;;;;18.34;100.00;99518.03;8354236;28;20041;-53
2022/09/14 05:27:38;;;;;;;43.35;22.25;;;;;;;18.28;100.00;99518.88;8346216;28;20053;-50
2022/09/14 05:31:39;;;;;;;41.28;23.35;;;;;;;18.22;100.00;99517.00;8338141;28;20045;-53
2022/09/14 05:35:40;;;;;;;41.65;22.88;;;;;;;18.18;100.00;99517.66;8345896;28;20518;-52
2022/09/14 05:39:40;;;;;;;37.80;21.27;;;;;;;18.11;100.00;99517.66;8337584;28;20045;-51
2022/09/14 05:43:42;;;;;;;40.55;21.85;;;;;;;18.07;100.00;99521.03;8347933;28;20482;-51
2022/09/14 05:47:42;;;;;;;41.88;21.48;;;;;;;18.08;100.00;99523.53;8352757;28;20071;-50
2022/09/14 05:51:42;;;;;;;42.70;22.67;;;;;;;18.06;100.00;99520.19;8353144;28;20032;-51
2022/09/14 05:55:43;;;;;;;39.22;21.77;;;;;;;18.12;100.00;99524.81;8354949;28;20490;-51
2022/09/14 05:59:43;;;;;;;34.83;21.42;;;;;;;18.09;100.00;99525.25;8352853;28;20041;-52
2022/09/14 06:03:45;;;;;;;39.23;21.23;;;;;;;18.06;100.00;99519.34;8351362;28;20025;-50
2022/09/14 06:07:51;;;;;;;36.47;22.05;;;;;;;18.03;100.00;99531.56;8354164;28;20287;-51
2022/09/14 06:11:52;;;;;;;39.60;22.35;;;;;;;18.00;100.00;99537.47;8354681;28;20044;-53
2022/09/14 06:15:52;;;;;;;46.23;22.63;;;;;;;17.91;100.00;99544.19;8354678;28;20037;-51
2022/09/14 06:19:52;;;;;;;38.53;22.45;;;;;;;17.81;100.00;99549.22;8349711;28;20292;-51
2022/09/14 06:23:54;;;;;;;42.47;22.75;;;;;;;17.83;100.00;99552.59;8354319;28;20044;-51
2022/09/14 06:27:54;;;;;;;42.42;23.10;;;;;;;17.81;100.00;99549.22;8352412;28;20056;-52
2022/09/14 06:31:55;;;;;;;37.97;20.23;;;;;;;17.64;100.00;99526.09;8352559;28;20486;-51
2022/09/14 06:35:58;;;;;;;37.85;19.92;;;;;;;17.57;100.00;99519.81;8353519;28;20486;-51
2022/09/14 06:39:58;;;;;;;39.10;20.45;;;;;;;17.61;100.00;99529.25;8349010;28;20029;-53
2022/09/14 06:44:00;;;;;;;43.78;20.10;;;;;;;17.53;100.00;99515.78;8351142;28;20040;-50
2022/09/14 06:48:01;;;;;;;39.92;21.33;;;;;;;17.54;100.00;99514.75;8348034;28;20534;-51
2022/09/14 06:52:01;;;;;;;38.33;20.77;;;;;;;17.50;100.00;99524.41;8349352;28;20420;-50
2022/09/14 06:56:02;;;;;;;33.75;18.48;;;;;;;17.48;100.00;99524.63;8353722;28;20035;-51
2022/09/14 07:00:04;;;;;;;37.13;19.05;;;;;;;17.43;100.00;99526.28;8353854;28;20383;-51
2022/09/14 07:04:05;;;;;;;19.75;12.75;;;;;;;17.23;100.00;99512.56;8353409;28;20486;-51
2022/09/14 07:08:05;;;;;;;24.23;13.77;;;;;;;17.29;100.00;99508.16;8381787;28;20462;-50
2022/09/14 07:12:06;;;;;;;20.60;13.30;;;;;;;17.35;100.00;99513.63;8355369;28;20075;-50
2022/09/14 07:16:07;;;;;;;19.15;13.52;;;;;;;17.17;100.00;99504.38;8356197;28;20086;-54
2022/09/14 07:20:07;;;;;;;22.35;12.55;;;;;;;17.23;100.00;99506.28;8355014;28;20048;-54
2022/09/14 07:24:11;;;;;;;20.30;11.43;;;;;;;17.31;100.00;99492.41;8355604;28;20144;-52
2022/09/14 07:28:11;;;;;;;13.27;9.23;;;;;;;17.28;100.00;99501.88;8356626;28;20486;-51
2022/09/14 07:32:12;;;;;;;13.18;8.27;;;;;;;17.31;100.00;99498.72;8356008;28;20478;-51
2022/09/14 07:36:13;;;;;;;10.65;7.53;;;;;;;17.42;100.00;99489.06;8355125;28;20498;-50
2022/09/14 07:40:14;;;;;;;10.23;8.10;;;;;;;17.36;100.00;99503.56;8355969;28;20493;-50
2022/09/14 07:44:16;;;;;;;8.88;6.90;;;;;;;17.32;100.00;99505.00;8355478;28;20055;-52
2022/09/14 07:48:16;;;;;;;9.20;7.78;;;;;;;17.42;100.00;99505.47;8355590;28;20033;-50
2022/09/14 07:52:17;;;;;;;11.18;8.40;;;;;;;17.53;100.00;99496.66;8353336;28;20135;-54
2022/09/14 07:56:18;;;;;;;11.05;8.88;;;;;;;17.54;100.00;99504.66;8355810;28;20029;-50
2022/09/14 08:00:20;;;;;;;11.93;8.90;;;;;;;17.54;100.00;99503.81;8357919;28;20033;-50
2022/09/14 08:04:21;;;;;;;11.15;8.68;;;;;;;17.54;100.00;99504.66;8356136;28;20033;-50
2022/09/14 08:08:23;;;;;;;14.88;9.85;;;;;;;17.59;100.00;99496.66;8354957;28;20067;-51
2022/09/14 08:12:23;;;;;;;11.57;9.57;;;;;;;17.61;100.00;99507.38;8356103;28;20040;-51
2022/09/14 08:16:26;;;;;;;13.95;10.75;;;;;;;17.55;100.00;99511.81;8354118;28;20033;-51
2022/09/14 08:20:27;;;;;;;13.27;10.90;;;;;;;17.57;100.00;99503.41;8354688;28;20132;-52
2022/09/14 08:24:27;;;;;;;15.38;11.57;;;;;;;17.66;100.00;99510.34;8352756;28;20029;-51
2022/09/14 08:28:28;;;;;;;15.30;11.68;;;;;;;17.65;100.00;99511.38;8354154;28;20044;-50
2022/09/14 08:32:28;;;;;;;15.13;11.77;;;;;;;17.71;100.00;99505.06;8354764;28;20072;-51
2022/09/14 08:36:32;;;;;;;14.10;10.52;;;;;;;17.70;100.00;99505.28;8357409;28;20270;-50
2022/09/14 08:40:32;;;;;;;12.87;10.93;;;;;;;17.71;100.00;99521.47;8351227;28;20041;-50
2022/09/14 08:44:40;;;;;;;15.93;11.43;;;;;;;17.75;100.00;99528.19;8353147;28;20043;-53
2022/09/14 08:48:46;;;;;;;13.80;11.40;;;;;;;17.76;100.00;99523.56;8355429;28;20478;-51
2022/09/14 08:52:51;;;;;;;14.55;10.70;;;;;;;17.76;100.00;99524.44;8355732;28;20041;-51
2022/09/14 08:57:17;;;;;;;16.02;10.98;;;;;;;17.77;100.00;99522.50;8356535;28;20044;-51
2022/09/14 09:01:57;;;;;;;17.58;11.75;;;;;;;17.81;100.00;99527.34;8344049;28;20072;-53
2022/09/14 09:06:18;;;;;;;13.65;10.50;;;;;;;17.82;100.00;99534.53;8351413;28;20094;-50
2022/09/14 09:10:19;;;;;;;15.05;11.27;;;;;;;17.87;100.00;99531.97;8353438;28;20127;-52
2022/09/14 09:14:29;;;;;;;17.73;11.70;;;;;;;17.91;100.00;99530.53;8353821;28;20032;-52
2022/09/14 09:18:59;;;;;;;13.57;10.77;;;;;;;17.83;100.00;99540.81;8354329;28;20039;-50
2022/09/14 09:23:15;;;;;;;13.63;11.00;;;;;;;17.81;100.00;99549.22;8353120;28;20033;-53
2022/09/14 09:27:15;;;;;;;14.35;11.40;;;;;;;17.75;100.00;99536.38;8352630;28;20132;-53
2022/09/14 09:31:18;;;;;;;14.15;11.23;;;;;;;17.61;100.00;99542.94;8354962;28;20037;-50
2022/09/14 09:35:23;;;;;;;15.25;11.02;;;;;;;17.68;100.00;99527.34;8354208;28;20116;-53
2022/09/14 09:39:24;;;;;;;15.10;11.88;;;;;;;17.67;100.00;99517.47;8352006;28;20111;-51
2022/09/14 09:43:25;;;;;;;17.63;11.43;;;;;;;17.52;100.00;99516.84;8376689;28;20152;-50
2022/09/14 09:47:32;;;;;;;16.73;12.13;;;;;;;17.67;100.00;99531.16;8350620;28;20036;-50
2022/09/14 09:51:33;;;;;;;16.65;12.55;;;;;;;17.76;100.00;99529.91;8350567;28;20076;-51
2022/09/14 09:55:38;;;;;;;19.05;14.48;;;;;;;17.53;100.00;99513.06;8354320;28;20379;-51
2022/09/14 09:59:43;;;;;;;21.70;13.98;;;;;;;17.48;100.00;99521.06;8354752;28;20055;-50
2022/09/14 10:03:58;;;;;;;21.15;14.32;;;;;;;17.42;100.00;99519.13;8354331;28;20091;-54
2022/09/14 10:08:01;;;;;;;24.83;16.70;;;;;;;17.33;100.00;99517.63;8354654;28;20569;-50
2022/09/14 10:12:03;;;;;;;25.83;17.17;;;;;;;17.35;100.00;99515.53;8354441;28;20051;-52
2022/09/14 10:16:07;;;;;;;26.50;16.98;;;;;;;17.35;100.00;99497.25;8351896;28;20039;-50
2022/09/14 10:20:20;;;;;;;23.13;16.00;;;;;;;17.45;100.00;99477.75;8352880;28;20041;-51
2022/09/14 10:24:21;;;;;;;30.05;16.88;;;;;;;17.51;100.00;99490.56;8348473;28;20432;-51
2022/09/14 10:28:26;;;;;;;27.40;17.35;;;;;;;17.48;100.00;99502.75;8350831;28;20110;-51
2022/09/14 10:32:29;;;;;;;23.75;15.45;;;;;;;17.45;100.00;99505.91;8352276;28;20051;-53
2022/09/14 10:36:32;;;;;;;28.48;17.48;;;;;;;17.47;100.00;99513.88;8351651;28;20044;-52
2022/09/14 10:40:43;;;;;;;28.20;17.27;;;;;;;17.45;100.00;99521.47;8360797;28;20044;-52
2022/09/14 10:45:17;;;;;;;29.92;18.92;;;;;;;17.38;100.00;99520.56;8359316;28;20120;-54
2022/09/14 10:49:46;;;;;;;36.45;20.40;;;;;;;17.53;100.00;99526.72;8359878;28;20029;-54
2022/09/14 10:54:00;;;;;;;25.23;18.63;;;;;;;17.52;100.00;99514.13;8358609;28;20029;-52
2022/09/14 10:58:19;;;;;;;25.20;17.70;;;;;;;17.51;100.00;99509.72;8359985;28;20048;-52
2022/09/14 11:02:49;;;;;;;26.65;17.92;;;;;;;17.42;100.00;99494.53;8359427;28;20043;-52
2022/09/14 11:07:11;;;;;;;26.55;18.45;;;;;;;17.39;100.00;99482.09;8356778;28;20083;-50
2022/09/14 11:15:57;;;;;;;30.83;20.13;;;;;;;17.51;100.00;99471.44;8461713;27;20125;-51
2022/09/14 11:24:22;;;;;;;21.70;14.88;;;;;;;17.84;100.00;99472.25;8321578;28;20389;-52
2022/09/14 11:28:29;;;;;;;16.65;12.18;;;;;;;17.82;100.00;99468.91;8319402;28;20056;-53
2022/09/14 11:32:56;;;;;;;11.35;10.15;;;;;;;17.85;100.00;99463.00;8348255;28;20033;-54
2022/09/14 11:37:03;;;;;;;10.32;9.20;;;;;;;17.75;100.00;99462.56;8317445;28;20403;-54
2022/09/14 11:41:32;;;;;;;12.05;9.82;;;;;;;17.85;100.00;99464.88;8294419;28;20044;-53
2022/09/14 11:45:40;;;;;;;14.88;10.23;;;;;;;17.88;100.00;99451.63;8284808;28;20034;-51
2022/09/14 11:50:19;;;;;;;12.52;10.50;;;;;;;18.01;100.00;99446.13;8285739;28;20506;-52
2022/09/14 11:54:22;;;;;;;10.43;9.07;;;;;;;18.17;100.00;99455.78;8322566;28;20253;-52
2022/09/14 11:58:28;;;;;;;11.00;9.70;;;;;;;18.22;100.00;99458.69;8335502;28;20041;-53
2022/09/14 12:06:46;;;;;;;10.75;9.73;;;;;;;18.25;100.00;99450.91;8376710;27;20141;-51
2022/09/14 12:19:35;;;;;;;14.07;10.30;;;;;;;18.16;100.00;99468.63;8381614;27;20833;-54
2022/09/14 12:23:42;;;;;;;16.38;14.52;;;;;;;18.08;100.00;99457.88;8379654;28;20052;-53
2022/09/14 12:27:45;;;;;;;17.15;14.23;;;;;;;18.12;100.00;99464.63;8375501;28;20457;-51
2022/09/14 12:36:11;;;;;;;26.75;21.45;;;;;;;17.99;100.00;99461.91;8405148;27;20469;-50
2022/09/14 12:40:32;;;;;;;28.90;23.63;;;;;;;17.97;100.00;99455.84;8374323;28;20036;-51
2022/09/14 12:44:42;;;;;;;31.02;23.75;;;;;;;18.00;100.00;99451.81;8375311;28;20587;-52
2022/09/14 12:53:22;;;;;;;27.27;21.65;;;;;;;18.13;100.00;99438.94;8411104;27;20389;-54
2022/09/14 12:57:48;;;;;;;25.05;19.73;;;;;;;18.18;100.00;99430.09;8404480;28;20025;-52
2022/09/14 13:02:16;;;;;;;32.80;23.92;;;;;;;18.18;100.00;99424.63;8403698;28;20453;-52
2022/09/14 13:06:17;;;;;;;40.15;27.05;;;;;;;18.10;100.00;99412.03;8385139;28;20059;-53
2022/09/14 13:10:36;;;;;;;32.55;23.52;;;;;;;18.23;100.00;99395.56;8381779;28;20044;-51
2022/09/14 13:14:46;;;;;;;22.73;17.98;;;;;;;18.24;100.00;99399.97;8388979;28;20064;-54
2022/09/14 13:18:47;;;;;;;22.15;17.58;;;;;;;18.12;100.00;99403.59;8383073;28;20044;-51
2022/09/14 13:22:47;;;;;;;21.95;17.88;;;;;;;18.18;100.00;99406.31;8396951;28;20063;-55
2022/09/14 13:26:48;;;;;;;24.98;19.05;;;;;;;18.19;100.00;99394.31;8365700;28;20033;-54
2022/09/14 13:30:59;;;;;;;28.02;21.27;;;;;;;18.05;100.00;99409.09;8367904;28;20040;-54
2022/09/14 13:35:03;;;;;;;24.15;20.40;;;;;;;17.93;100.00;99416.28;8384574;28;20055;-53
2022/09/14 13:39:17;;;;;;;27.08;21.73;;;;;;;17.90;100.00;99433.09;8372980;28;20978;-53
2022/09/14 13:43:19;;;;;;;37.40;25.30;;;;;;;17.96;100.00;99415.84;8358181;28;20051;-51
2022/09/14 13:47:23;;;;;;;40.00;26.20;;;;;;;17.88;100.00;99407.88;8361310;28;20608;-51
2022/09/14 13:51:26;;;;;;;27.77;22.00;;;;;;;17.78;100.00;99412.94;8381249;28;20087;-53
2022/09/14 14:00:20;;;;;;;26.45;19.13;;;;;;;17.69;100.00;99414.25;8392800;27;20395;-51
2022/09/14 14:04:26;;;;;;;24.20;17.67;;;;;;;17.70;100.00;99415.06;8380106;28;20094;-53
2022/09/14 14:08:37;;;;;;;30.73;18.77;;;;;;;17.63;100.00;99423.28;8382257;28;20029;-51
2022/09/14 14:12:41;;;;;;;26.95;18.55;;;;;;;17.53;100.00;99439.25;8378047;28;20502;-53
2022/09/14 14:17:21;;;;;;;23.48;16.75;;;;;;;17.41;100.00;99432.72;8379035;28;20036;-52
2022/09/14 14:25:43;;;;;;;19.08;13.35;;;;;;;17.29;100.00;99418.00;8360815;27;20388;-54
2022/09/14 14:29:43;;;;;;;16.52;12.45;;;;;;;17.39;100.00;99408.34;8346300;28;20037;-54
2022/09/14 14:33:46;;;;;;;13.15;9.98;;;;;;;17.33;100.00;99409.19;8369893;28;20046;-51
2022/09/14 14:37:48;;;;;;;13.02;11.07;;;;;;;17.45;100.00;99409.44;8377884;28;20037;-54
2022/09/14 14:41:49;;;;;;;13.25;9.77;;;;;;;17.56;100.00;99425.16;8378178;28;20045;-53
2022/09/14 14:45:55;;;;;;;11.95;9.20;;;;;;;17.53;100.00;99411.94;8375793;28;20041;-51
2022/09/14 14:49:55;;;;;;;12.20;9.15;;;;;;;17.42;100.00;99390.69;8383390;28;20037;-51
2022/09/14 14:53:55;;;;;;;13.35;10.05;;;;;;;17.45;100.00;99391.13;8379734;28;20132;-54
2022/09/14 14:57:59;;;;;;;16.92;10.30;;;;;;;17.48;100.00;99381.69;8373176;28;20506;-53
2022/09/14 15:02:00;;;;;;;12.68;10.25;;;;;;;17.52;100.00;99374.72;8382302;28;20036;-55
2022/09/14 15:06:12;;;;;;;12.23;9.85;;;;;;;17.57;100.00;99391.34;8348272;28;20072;-52
2022/09/14 15:10:14;;;;;;;14.93;12.55;;;;;;;17.45;100.00;99399.31;8364935;28;20041;-53
2022/09/14 15:14:18;;;;;;;20.58;13.65;;;;;;;17.76;100.00;99397.81;8341213;28;20070;-52
2022/09/14 15:18:18;;;;;;;23.42;18.17;;;;;;;17.75;100.00;99402.44;8339410;28;20569;-52
2022/09/14 15:22:19;;;;;;;25.73;18.20;;;;;;;17.77;100.00;99410.41;8346022;28;20509;-51
2022/09/14 15:26:20;;;;;;;28.63;20.88;;;;;;;17.75;100.00;99407.91;8344316;28;20356;-50
2022/09/14 15:30:20;;;;;;;23.70;19.15;;;;;;;17.57;100.00;99405.81;8345967;28;20127;-50
2022/09/14 15:34:21;;;;;;;17.75;13.93;;;;;;;17.48;100.00;99407.09;8333770;28;20041;-54
2022/09/14 15:38:21;;;;;;;14.05;12.65;;;;;;;17.54;100.00;99411.72;8321985;28;20699;-51
2022/09/14 15:42:23;;;;;;;12.77;10.73;;;;;;;17.50;100.00;99415.09;8319702;28;20030;-51
2022/09/14 15:46:24;;;;;;;14.02;11.63;;;;;;;17.48;100.00;99417.22;8318255;28;20041;-54
2022/09/14 15:50:24;;;;;;;13.38;12.05;;;;;;;17.45;100.00;99417.63;8315913;28;20083;-53
2022/09/14 15:54:31;;;;;;;20.75;17.52;;;;;;;17.44;100.00;99411.31;8318290;28;20341;-50
2022/09/14 15:58:31;;;;;;;28.33;19.88;;;;;;;17.28;100.00;99402.66;8313274;28;20033;-52
2022/09/14 16:02:32;;;;;;;25.10;20.13;;;;;;;17.28;100.00;99398.06;8320673;28;20038;-52
2022/09/14 16:06:33;;;;;;;16.85;14.20;;;;;;;17.26;100.00;99391.13;8316743;28;20042;-54
2022/09/14 16:10:34;;;;;;;15.82;13.40;;;;;;;17.23;100.00;99386.91;8302361;28;20123;-50
2022/09/14 16:14:34;;;;;;;20.30;16.15;;;;;;;17.07;100.00;99387.34;8317726;28;20033;-52
2022/09/14 16:18:35;;;;;;;25.48;17.58;;;;;;;17.03;100.00;99390.69;8310568;28;20045;-51
2022/09/14 16:22:36;;;;;;;24.52;18.85;;;;;;;17.14;100.00;99411.94;8307919;28;20045;-52
2022/09/14 16:26:38;;;;;;;26.70;19.73;;;;;;;17.02;100.00;99405.41;8311861;28;20084;-51
2022/09/14 16:30:38;;;;;;;26.77;19.95;;;;;;;16.96;100.00;99415.25;8307430;28;20044;-50
2022/09/14 16:34:39;;;;;;;26.60;18.70;;;;;;;16.95;100.00;99410.84;8302148;28;20041;-51
2022/09/14 16:38:40;;;;;;;30.00;20.87;;;;;;;17.03;100.00;99423.47;8317071;28;20944;-52
2022/09/14 16:42:40;;;;;;;24.27;17.60;;;;;;;16.96;100.00;99439.00;8314938;28;20284;-51
2022/09/14 16:46:40;;;;;;;24.02;16.05;;;;;;;17.07;100.00;99446.56;8307896;28;20053;-53
2022/09/14 16:50:41;;;;;;;20.95;14.18;;;;;;;17.01;100.00;99458.31;8298578;28;20045;-51
2022/09/14 16:54:42;;;;;;;17.17;13.23;;;;;;;16.97;100.00;99451.59;8302179;28;20053;-51
2022/09/14 16:58:44;;;;;;;19.63;14.00;;;;;;;16.97;100.00;99451.59;8304944;28;20033;-52
2022/09/14 17:02:44;;;;;;;21.10;16.10;;;;;;;16.99;100.00;99466.72;8283946;28;20037;-51
2022/09/14 17:06:45;;;;;;;20.40;17.40;;;;;;;17.00;100.00;99464.84;8317995;28;20061;-50
2022/09/14 17:10:50;;;;;;;19.13;15.60;;;;;;;16.98;100.00;99456.00;8320316;28;20041;-53
2022/09/14 17:14:52;;;;;;;21.13;15.43;;;;;;;16.94;100.00;99454.75;8320449;28;20038;-53
2022/09/14 17:18:57;;;;;;;20.88;15.73;;;;;;;16.85;100.00;99454.09;8319449;28;20149;-53
2022/09/14 17:22:57;;;;;;;;;;;;;;;16.87;100.00;99464.81;8318215;28;20300;-54
2022/09/14 17:26:57;;;;;;;23.90;16.17;;;;;;;16.89;100.00;99470.91;8314358;28;20269;-54
2022/09/14 17:31:00;;;;;;;18.65;15.25;;;;;;;16.82;100.00;99459.13;8311116;28;20037;-50
2022/09/14 17:35:01;;;;;;;23.27;15.95;;;;;;;16.89;100.00;99454.50;8307629;28;20072;-52
2022/09/14 17:39:03;;;;;;;18.02;14.93;;;;;;;16.82;100.00;99459.97;8308207;28;20053;-51
2022/09/14 17:43:04;;;;;;;24.77;14.48;;;;;;;16.75;100.00;99450.09;8315572;28;20037;-54
2022/09/14 17:47:04;;;;;;;20.13;13.27;;;;;;;16.68;100.00;99441.88;8314065;28;20048;-51
2022/09/14 17:51:06;;;;;;;17.20;12.90;;;;;;;16.67;100.00;99444.81;8316905;28;20406;-51
2022/09/14 17:55:07;;;;;;;14.65;11.98;;;;;;;16.72;100.00;99450.50;8319989;28;20039;-53
2022/09/14 17:59:14;;;;;;;15.27;10.38;;;;;;;16.73;100.00;99457.63;8318894;28;20258;-50
2022/09/14 18:03:14;;;;;;;14.43;9.05;;;;;;;16.60;100.00;99453.00;8318551;28;20057;-54
2022/09/14 18:07:15;;;;;;;10.13;9.00;;;;;;;16.58;100.00;99459.69;8318026;28;20037;-50
2022/09/14 18:11:16;;;;;;;9.93;7.97;;;;;;;16.49;100.00;99459.03;8317450;28;20279;-51
2022/09/14 18:15:17;;;;;;;10.10;7.07;;;;;;;16.38;100.00;99461.47;8316800;28;20065;-53
2022/09/14 18:19:17;;;;;;;10.35;6.80;;;;;;;16.42;100.00;99484.56;8305363;28;20230;-51
2022/09/14 18:23:17;;;;;;;10.07;6.50;;;;;;;16.27;100.00;99487.44;8317989;28;20041;-52
2022/09/14 18:27:18;;;;;;;13.65;6.35;;;;;;;16.24;100.00;99497.91;8310498;28;20075;-51
2022/09/14 18:31:19;;;;;;;10.65;6.47;;;;;;;16.24;100.00;99497.91;8306579;28;20046;-51
2022/09/14 18:35:19;;;;;;;12.50;6.30;;;;;;;16.26;100.00;99495.81;8313453;28;20125;-52
2022/09/14 18:39:19;;;;;;;8.93;6.22;;;;;;;16.21;100.00;99482.78;8317978;28;20057;-53
2022/09/14 18:43:20;;;;;;;12.00;7.15;;;;;;;16.30;100.00;99497.09;8318020;28;20046;-51
2022/09/14 18:47:21;;;;;;;16.88;8.18;;;;;;;16.35;100.00;99500.06;8319148;28;20109;-54
2022/09/14 18:51:21;;;;;;;13.68;8.60;;;;;;;16.31;100.00;99504.25;8312686;28;20034;-52
2022/09/14 18:55:22;;;;;;;16.80;9.75;;;;;;;16.38;100.00;99510.56;8311061;28;20443;-54
2022/09/14 18:59:23;;;;;;;17.42;8.95;;;;;;;16.33;100.00;99507.59;8315282;28;20402;-51
2022/09/14 19:03:23;;;;;;;17.02;8.75;;;;;;;16.21;100.00;99506.47;8314108;28;20044;-51
2022/09/14 19:07:25;;;;;;;22.67;9.10;;;;;;;16.23;100.00;99507.97;8315923;28;20506;-54
2022/09/14 19:11:28;;;;;;;20.05;8.57;;;;;;;16.31;100.00;99517.88;8323811;28;20061;-55
2022/09/14 19:15:29;;;;;;;19.10;9.40;;;;;;;16.30;100.00;99524.38;8326808;28;20150;-54